Thursday, November 23, 2017, 7:06 AM GMT
Back to Local

CWBK, Caribou Point Meteorological Aeronautical Presentation System

Location: , , Canada Lat: 45.767
Local Time: 7:06 AM GMT ( 7:06 GMT) Lon: -62.683
Time Zone: GMT Elev: 6 ft

Show me the last for .
Show Coded

Time T Td Feel RH Dir Speed Gust Alt SLP Vis Weather Sky Remarks
2017-11-23 06:00 55 52 - 89 160° 30 37 - 29.33 0 Peak wind: 36 mph (32 kts) from 160° at 55 min
Pressure falling rapidly
1-hr Precip Total: 0.11"
2017-11-23 05:00 54 49 - 83 160° 22 30 - 29.44 0 Peak wind: 29 mph (26 kts) from 150° at 34 min
Pressure falling rapidly
1-hr Precip Total: 0.07"
2017-11-23 04:00 54 51 - 89 160° 21 28 - 29.56 0 Peak wind: 27 mph (24 kts) from 150° at 50 min
Pressure falling rapidly
1-hr Precip Total: 0.04"
2017-11-23 03:00 53 51 - 92 160° 15 - - 29.64 0 Peak wind: 20 mph (18 kts) from 150° at 20 min
Pressure falling rapidly
1-hr Precip Total: 0.01"
2017-11-23 02:00 54 51 - 91 160° 16 - - 29.70 0 Peak wind: 29 mph (26 kts) from 180° at 12 min
Pressure falling rapidly
1-hr Precip Total: 0.02"
2017-11-23 01:00 55 51 - 87 170° 20 28 - 29.76 0 Peak wind: 27 mph (24 kts) from 180° at 51 min
2017-11-23 00:00 53 49 - 87 160° 20 - - 29.81 0 Peak wind: 26 mph (23 kts) from 160° at 04 min
2017-11-22 23:00 53 49 - 88 160° 17 23 - 29.85 0 Peak wind: 23 mph (20 kts) from 160° at 58 min
Pressure falling rapidly
2017-11-22 22:00 51 47 - 85 170° 12 - - 29.90 0 None
2017-11-22 21:00 50 46 45 87 140° 10 - - 29.94 0 None
2017-11-22 20:00 48 42 44 78 100° 9 - - 29.96 0 None
2017-11-22 19:00 57 44 - 61 - Calm - - 29.98 0 None
2017-11-22 18:00 58 45 - 61 210° 6 - - 29.99 0 None
2017-11-22 17:00 57 44 - 60 210° 7 - - 30.01 0 None
2017-11-22 16:00 55 43 - 65 210° 6 17 - 30.05 0 None
2017-11-22 15:00 53 47 - 80 200° 5 - - 30.07 0 None
2017-11-22 14:00 47 46 43 96 180° 9 - - 30.07 0 None
2017-11-22 13:00 45 43 43 92 200° 5 - - 30.09 0 None
2017-11-22 12:00 42 40 40 91 190° 3 - - 30.08 0 None
2017-11-22 11:00 41 38 37 90 190° 6 - - 30.06 0 None
2017-11-22 10:00 42 38 36 88 180° 8 - - 30.06 0 None
2017-11-22 09:00 44 41 43 87 230° 3 - - 30.07 0 None
2017-11-22 08:00 45 41 43 86 230° 3 - - 30.06 0 None

Support USWX by starting your Amazon purchase here.